createdAt,value
2023-02-25T00:01:14.896Z,13.80
2023-02-25T00:02:48.295Z,14.77
2023-02-25T00:04:21.682Z,14.32
2023-02-25T00:05:53.963Z,14.07
2023-02-25T00:07:28.736Z,12.85
2023-02-25T00:09:02.342Z,14.23
2023-02-25T00:10:35.064Z,12.95
2023-02-25T00:12:10.426Z,13.30
2023-02-25T00:13:44.703Z,12.43
2023-02-25T00:15:18.506Z,13.65
2023-02-25T00:16:56.327Z,13.02
2023-02-25T00:18:31.249Z,13.77
2023-02-25T00:20:05.005Z,12.60
2023-02-25T00:21:39.203Z,13.52
2023-02-25T00:23:13.832Z,14.90
2023-02-25T00:24:46.914Z,17.30
2023-02-25T00:26:20.715Z,15.60
2023-02-25T00:27:55.754Z,15.30
2023-02-25T00:29:30.806Z,14.60
2023-02-25T00:31:07.018Z,13.25
2023-02-25T00:32:40.481Z,16.50
2023-02-25T00:34:13.934Z,12.85
2023-02-25T00:35:47.817Z,14.07
2023-02-25T00:37:20.076Z,13.10
2023-02-25T00:38:55.406Z,12.80
2023-02-25T00:40:29.069Z,12.60
2023-02-25T00:42:02.350Z,11.90
2023-02-25T00:43:37.419Z,11.43
2023-02-25T00:45:12.361Z,14.85
2023-02-25T00:46:46.142Z,14.50
2023-02-25T00:48:18.443Z,16.55
2023-02-25T00:49:52.524Z,15.38
2023-02-25T00:51:27.367Z,14.38
2023-02-25T00:52:59.582Z,14.73
2023-02-25T00:54:32.935Z,18.08
2023-02-25T00:56:07.289Z,18.55
2023-02-25T00:57:40.645Z,22.02
2023-02-25T00:59:14.363Z,25.20
2023-02-25T01:00:52.050Z,21.05
2023-02-25T01:02:24.542Z,20.75
2023-02-25T01:03:59.195Z,17.67
2023-02-25T01:05:32.572Z,15.52
2023-02-25T01:07:06.133Z,12.95
2023-02-25T01:08:39.641Z,14.13
2023-02-25T01:10:13.140Z,14.30
2023-02-25T01:11:47.785Z,14.05
2023-02-25T01:13:20.000Z,14.88
2023-02-25T01:14:56.707Z,17.52
2023-02-25T01:16:31.973Z,16.23
2023-02-25T01:18:05.397Z,14.88
2023-02-25T01:19:38.674Z,18.85
2023-02-25T01:21:17.736Z,17.10
2023-02-25T01:22:51.591Z,19.73
2023-02-25T01:24:27.470Z,20.27
2023-02-25T01:26:00.278Z,20.80
2023-02-25T01:27:33.423Z,17.65
2023-02-25T01:29:08.821Z,16.70
2023-02-25T01:30:43.342Z,15.10
2023-02-25T01:32:17.901Z,13.82
2023-02-25T01:33:51.453Z,17.42
2023-02-25T01:35:26.646Z,16.48
2023-02-25T01:37:00.572Z,15.13
2023-02-25T01:38:35.551Z,14.57
2023-02-25T01:40:10.074Z,14.80
2023-02-25T01:41:43.160Z,14.02
2023-02-25T01:43:19.228Z,15.10
2023-02-25T01:45:24.855Z,17.42
2023-02-25T01:47:01.616Z,28.60
2023-02-25T01:48:40.604Z,28.88
2023-02-25T01:50:12.923Z,22.23
2023-02-25T01:51:50.005Z,22.35
2023-02-25T01:53:27.957Z,20.48
2023-02-25T01:55:02.616Z,25.00
2023-02-25T01:56:41.419Z,21.65
2023-02-25T01:58:19.066Z,19.75
2023-02-25T01:59:54.921Z,23.08
2023-02-25T02:01:33.927Z,20.85
2023-02-25T02:03:16.002Z,19.77
2023-02-25T02:04:51.716Z,20.08
2023-02-25T02:06:32.814Z,16.05
2023-02-25T02:08:05.849Z,18.10
2023-02-25T02:09:40.435Z,18.27
2023-02-25T02:11:14.010Z,20.48
2023-02-25T02:12:48.366Z,18.45
2023-02-25T02:14:26.409Z,17.15
2023-02-25T02:16:18.522Z,16.05
2023-02-25T02:17:57.890Z,16.30
2023-02-25T02:19:43.314Z,16.02
2023-02-25T02:21:37.324Z,15.65
2023-02-25T02:23:46.370Z,15.73
2023-02-25T02:25:51.567Z,16.75
2023-02-25T02:27:28.506Z,15.88
2023-02-25T02:29:26.600Z,16.13
2023-02-25T02:31:21.197Z,18.25
2023-02-25T02:33:04.165Z,16.45
2023-02-25T02:34:46.465Z,17.73
2023-02-25T02:36:28.673Z,18.30
2023-02-25T02:38:13.447Z,18.58
2023-02-25T02:39:53.351Z,16.88
2023-02-25T02:41:34.957Z,20.88
2023-02-25T02:43:22.839Z,20.10
2023-02-25T02:45:01.742Z,17.77
2023-02-25T02:46:41.770Z,17.65
2023-02-25T02:48:18.455Z,19.67
2023-02-25T02:49:56.150Z,22.08
2023-02-25T02:51:35.470Z,20.27
2023-02-25T02:53:14.825Z,18.15
2023-02-25T02:54:54.870Z,20.15
2023-02-25T02:56:30.962Z,20.10
2023-02-25T02:58:10.676Z,21.88
2023-02-25T02:59:51.234Z,19.35
2023-02-25T03:01:29.647Z,22.48
2023-02-25T03:03:09.754Z,25.63
2023-02-25T03:04:46.078Z,25.08
2023-02-25T03:06:24.781Z,25.25
2023-02-25T03:08:07.870Z,24.73
2023-02-25T03:09:45.310Z,21.58
2023-02-25T03:11:18.725Z,22.45
2023-02-25T03:12:50.952Z,21.27
2023-02-25T03:14:24.251Z,21.75
2023-02-25T03:16:00.134Z,16.85
2023-02-25T03:17:40.665Z,17.27
2023-02-25T03:19:19.042Z,18.50
2023-02-25T03:20:55.991Z,17.33
2023-02-25T03:22:33.884Z,20.73
2023-02-25T03:24:12.643Z,19.55
2023-02-25T03:25:49.961Z,21.40
2023-02-25T03:27:29.184Z,22.45
2023-02-25T03:29:07.620Z,21.70
2023-02-25T03:30:48.513Z,22.58
2023-02-25T03:32:23.228Z,19.23
2023-02-25T03:34:01.843Z,20.13
2023-02-25T03:35:40.316Z,18.33
2023-02-25T03:37:19.433Z,17.33
2023-02-25T03:38:56.946Z,17.52
2023-02-25T03:40:32.855Z,17.52
2023-02-25T03:42:13.581Z,19.58
2023-02-25T03:43:51.961Z,19.33
2023-02-25T03:45:25.909Z,21.50
2023-02-25T03:47:01.108Z,22.00
2023-02-25T03:48:36.403Z,25.77
2023-02-25T03:50:17.687Z,23.48
2023-02-25T03:51:57.654Z,22.63
2023-02-25T03:53:32.838Z,28.73
2023-02-25T03:55:18.969Z,80.05
2023-02-25T03:56:53.183Z,35.03
2023-02-25T03:58:26.946Z,48.42
2023-02-25T04:00:00.221Z,42.08
2023-02-25T04:01:34.806Z,49.15
2023-02-25T04:03:08.172Z,36.22
2023-02-25T04:04:41.394Z,31.23
2023-02-25T04:06:14.184Z,25.83
2023-02-25T04:07:49.515Z,22.67
2023-02-25T04:09:23.170Z,17.38
2023-02-25T04:10:56.517Z,22.13
2023-02-25T04:12:28.692Z,28.27
2023-02-25T04:14:01.936Z,24.92
2023-02-25T04:15:34.403Z,29.25
2023-02-25T04:17:07.719Z,19.75
2023-02-25T04:18:41.118Z,18.92
2023-02-25T04:20:17.237Z,20.23
2023-02-25T04:21:50.482Z,17.52
2023-02-25T04:23:24.198Z,17.77
2023-02-25T04:24:57.410Z,17.15
2023-02-25T04:26:30.061Z,16.48
2023-02-25T04:28:03.270Z,19.70
2023-02-25T04:29:36.426Z,22.40
2023-02-25T04:31:09.959Z,18.75
2023-02-25T04:32:43.771Z,19.90
2023-02-25T04:34:17.135Z,17.30
2023-02-25T04:35:51.644Z,16.48
2023-02-25T04:37:24.938Z,22.35
2023-02-25T04:39:01.791Z,19.73
2023-02-25T04:40:34.976Z,15.25
2023-02-25T04:42:08.675Z,18.60
2023-02-25T04:43:41.864Z,14.77
2023-02-25T04:45:16.661Z,15.10
2023-02-25T04:46:52.057Z,18.20
2023-02-25T04:48:25.989Z,20.00
2023-02-25T04:49:58.191Z,14.95
2023-02-25T04:51:31.960Z,18.48
2023-02-25T04:53:04.330Z,20.67
2023-02-25T04:54:39.030Z,27.70
2023-02-25T04:56:12.590Z,22.17
2023-02-25T04:57:46.129Z,21.83
2023-02-25T04:59:18.274Z,21.85
2023-02-25T05:00:52.541Z,19.33
2023-02-25T05:02:25.818Z,17.75
2023-02-25T05:04:01.013Z,20.45
2023-02-25T05:05:34.134Z,23.98
2023-02-25T05:07:07.353Z,30.67
2023-02-25T05:08:41.050Z,28.90
2023-02-25T05:10:15.431Z,39.50
2023-02-25T05:11:48.601Z,29.45
2023-02-25T05:13:21.372Z,25.52
2023-02-25T05:14:54.575Z,25.90
2023-02-25T05:16:28.591Z,23.45
2023-02-25T05:18:02.034Z,21.85
2023-02-25T05:19:35.632Z,22.10
2023-02-25T05:21:09.798Z,24.45
2023-02-25T05:22:43.483Z,34.67
2023-02-25T05:24:16.934Z,21.60
2023-02-25T05:25:50.425Z,26.05
2023-02-25T05:27:23.776Z,17.65
2023-02-25T05:28:57.841Z,25.23
2023-02-25T05:30:31.171Z,23.25
2023-02-25T05:32:03.884Z,21.33
2023-02-25T05:33:38.350Z,18.10
2023-02-25T05:35:11.164Z,19.15
2023-02-25T05:36:46.996Z,19.88
2023-02-25T05:38:20.592Z,17.88
2023-02-25T05:39:53.947Z,21.27
2023-02-25T05:41:27.803Z,29.88
2023-02-25T05:43:01.026Z,20.80
2023-02-25T05:44:34.563Z,27.75
2023-02-25T05:46:12.084Z,20.98
2023-02-25T05:47:45.519Z,19.15
2023-02-25T05:49:18.781Z,20.10
2023-02-25T05:50:52.422Z,18.75
2023-02-25T05:52:24.793Z,20.70
2023-02-25T05:53:58.666Z,25.83
2023-02-25T05:55:31.792Z,44.00
2023-02-25T05:57:07.121Z,27.05
2023-02-25T05:58:40.671Z,22.27
2023-02-25T06:00:15.989Z,21.00
2023-02-25T06:01:49.254Z,21.77
2023-02-25T06:03:22.749Z,23.45
2023-02-25T06:04:56.707Z,26.92
2023-02-25T06:06:32.509Z,26.52
2023-02-25T06:08:05.879Z,23.52
2023-02-25T06:09:40.182Z,24.80
2023-02-25T06:11:18.422Z,25.30
2023-02-25T06:12:54.054Z,26.65
2023-02-25T06:14:27.760Z,24.70
2023-02-25T06:16:03.410Z,22.88
2023-02-25T06:17:37.207Z,24.15
2023-02-25T06:19:13.092Z,22.08
2023-02-25T06:20:46.599Z,24.70
2023-02-25T06:22:20.521Z,23.13
2023-02-25T06:23:53.165Z,23.00
2023-02-25T06:25:30.016Z,21.70
2023-02-25T06:27:03.385Z,22.45
2023-02-25T06:28:39.140Z,22.90
2023-02-25T06:30:13.215Z,22.42
2023-02-25T06:31:46.491Z,24.98
2023-02-25T06:33:19.312Z,21.92
2023-02-25T06:34:52.870Z,22.85
2023-02-25T06:36:26.754Z,23.30
2023-02-25T06:38:01.243Z,23.73
2023-02-25T06:39:34.722Z,20.98
2023-02-25T06:41:09.266Z,24.75
2023-02-25T06:42:42.643Z,24.55
2023-02-25T06:44:17.346Z,25.90
2023-02-25T06:45:50.975Z,25.40
2023-02-25T06:47:24.298Z,24.98
2023-02-25T06:48:57.902Z,30.73
2023-02-25T06:50:31.345Z,31.10
2023-02-25T06:52:04.740Z,31.83
2023-02-25T06:53:38.013Z,22.50
2023-02-25T06:55:11.873Z,22.35
2023-02-25T06:56:45.867Z,29.02
2023-02-25T06:58:19.209Z,24.25
2023-02-25T06:59:54.060Z,23.90
2023-02-25T07:01:28.336Z,22.55
2023-02-25T07:03:03.178Z,24.90
2023-02-25T07:04:36.448Z,26.52
2023-02-25T07:06:10.154Z,29.48
2023-02-25T07:07:43.595Z,27.38
2023-02-25T07:09:16.913Z,25.13
2023-02-25T07:10:50.321Z,24.60
2023-02-25T07:12:23.657Z,23.30
2023-02-25T07:13:57.751Z,23.27
2023-02-25T07:15:32.293Z,22.05
2023-02-25T07:17:05.983Z,20.20
2023-02-25T07:18:39.171Z,22.30
2023-02-25T07:20:13.801Z,24.17
2023-02-25T07:21:47.397Z,25.17
2023-02-25T07:23:21.214Z,24.50
2023-02-25T07:24:54.663Z,23.60
2023-02-25T07:26:28.580Z,27.25
2023-02-25T07:28:01.966Z,24.40
2023-02-25T07:29:35.367Z,23.75
2023-02-25T07:31:15.092Z,24.50
2023-02-25T07:32:48.920Z,24.13
2023-02-25T07:34:22.293Z,25.98
2023-02-25T07:35:56.019Z,23.95
2023-02-25T07:37:29.485Z,32.75
2023-02-25T07:39:04.432Z,29.58
2023-02-25T07:40:39.230Z,32.35
2023-02-25T07:42:12.832Z,34.65
2023-02-25T07:43:46.568Z,30.75
2023-02-25T07:45:20.460Z,36.47
2023-02-25T07:46:55.587Z,33.42
2023-02-25T07:48:28.875Z,38.10
2023-02-25T07:50:02.226Z,34.90
2023-02-25T07:51:36.231Z,35.92
2023-02-25T07:53:09.398Z,30.90
2023-02-25T07:54:42.941Z,29.63
2023-02-25T07:56:15.989Z,29.50
2023-02-25T07:57:49.747Z,30.40
2023-02-25T07:59:23.310Z,30.58
2023-02-25T08:00:56.880Z,39.35
2023-02-25T08:02:32.245Z,29.73
2023-02-25T08:04:09.305Z,25.35
2023-02-25T08:05:43.022Z,30.00
2023-02-25T08:07:16.430Z,25.75
2023-02-25T08:08:51.057Z,25.83
2023-02-25T08:10:24.956Z,22.25
2023-02-25T08:11:58.307Z,24.52
2023-02-25T08:13:30.374Z,28.42
2023-02-25T08:15:04.108Z,30.55
2023-02-25T08:16:39.976Z,35.78
2023-02-25T08:18:13.757Z,53.22
2023-02-25T08:19:47.346Z,71.18
2023-02-25T08:21:23.520Z,32.80
2023-02-25T08:22:57.249Z,35.40
2023-02-25T08:24:30.648Z,33.58
2023-02-25T08:26:05.128Z,36.10
2023-02-25T08:27:38.372Z,31.52
2023-02-25T08:29:12.402Z,30.63
2023-02-25T08:30:45.545Z,38.30
2023-02-25T08:32:18.851Z,30.88
2023-02-25T08:33:55.070Z,32.63
2023-02-25T08:35:28.578Z,25.25
2023-02-25T08:37:02.034Z,28.00
2023-02-25T08:38:35.400Z,29.73
2023-02-25T08:40:11.309Z,27.98
2023-02-25T08:41:45.673Z,29.77
2023-02-25T08:43:18.931Z,23.33
2023-02-25T08:44:52.825Z,24.90
2023-02-25T08:46:29.047Z,25.95
2023-02-25T08:48:02.860Z,22.48
2023-02-25T08:49:37.634Z,29.75
2023-02-25T08:51:12.397Z,28.15
2023-02-25T08:52:46.700Z,25.77
2023-02-25T08:54:20.205Z,24.70
2023-02-25T08:55:53.903Z,26.83
2023-02-25T08:57:27.727Z,30.75
2023-02-25T08:59:01.735Z,28.45
2023-02-25T09:00:36.485Z,22.48
2023-02-25T09:02:15.195Z,22.38
2023-02-25T09:03:52.461Z,22.05
2023-02-25T09:05:27.624Z,21.92
2023-02-25T09:07:01.471Z,25.48
2023-02-25T09:08:34.928Z,26.63
2023-02-25T09:10:10.272Z,23.52
2023-02-25T09:11:44.652Z,67.10
2023-02-25T09:13:19.846Z,29.98
2023-02-25T09:14:53.672Z,26.02
2023-02-25T09:16:28.236Z,24.90
2023-02-25T09:18:01.449Z,25.13
2023-02-25T09:19:35.235Z,24.25
2023-02-25T09:21:10.869Z,23.90
2023-02-25T09:22:44.195Z,23.55
2023-02-25T09:24:18.924Z,33.95
2023-02-25T09:25:52.341Z,24.33
2023-02-25T09:27:25.582Z,26.15
2023-02-25T09:29:01.909Z,24.75
2023-02-25T09:30:35.292Z,26.10
2023-02-25T09:32:10.163Z,24.05
2023-02-25T09:33:44.215Z,22.70
2023-02-25T09:35:17.600Z,24.73
2023-02-25T09:36:52.294Z,25.85
2023-02-25T09:38:26.034Z,26.90
2023-02-25T09:39:59.175Z,27.70
2023-02-25T09:41:36.441Z,28.48
2023-02-25T09:43:21.707Z,30.63
2023-02-25T09:44:59.055Z,31.95
2023-02-25T09:46:33.840Z,32.03
2023-02-25T09:48:16.691Z,29.63
2023-02-25T09:49:55.012Z,32.08
2023-02-25T09:51:34.135Z,31.92
2023-02-25T09:53:17.982Z,33.95
2023-02-25T09:54:56.843Z,27.98
2023-02-25T09:56:31.674Z,24.05
2023-02-25T09:58:10.136Z,20.70
2023-02-25T09:59:43.432Z,23.58
2023-02-25T10:01:27.690Z,21.02
2023-02-25T10:03:07.183Z,20.73
2023-02-25T10:04:49.187Z,21.02
2023-02-25T10:06:30.948Z,20.77
2023-02-25T10:08:19.081Z,20.13
2023-02-25T10:10:05.011Z,21.70
2023-02-25T10:11:51.209Z,20.95
2023-02-25T10:13:35.023Z,22.23
2023-02-25T10:15:38.992Z,22.65
2023-02-25T10:17:19.158Z,23.88
2023-02-25T10:19:04.244Z,24.85
2023-02-25T10:20:59.263Z,22.55
2023-02-25T10:22:46.623Z,23.42
2023-02-25T10:24:30.595Z,22.80
2023-02-25T10:26:09.388Z,23.63
2023-02-25T10:27:49.477Z,23.63
2023-02-25T10:29:29.461Z,19.60
2023-02-25T10:31:07.119Z,20.88
2023-02-25T10:32:43.354Z,19.80
2023-02-25T10:34:22.960Z,20.60
2023-02-25T10:36:02.239Z,21.52
2023-02-25T10:37:37.778Z,20.05
2023-02-25T10:39:12.683Z,22.42
2023-02-25T10:40:47.242Z,24.90
2023-02-25T10:42:20.710Z,26.23
2023-02-25T10:43:55.947Z,26.92
2023-02-25T10:45:31.274Z,25.38
2023-02-25T10:47:07.999Z,32.90
2023-02-25T10:48:43.508Z,31.33
2023-02-25T10:50:27.599Z,32.47
2023-02-25T10:52:10.522Z,32.30
2023-02-25T10:54:07.271Z,29.80
2023-02-25T10:55:52.078Z,27.58
2023-02-25T10:57:28.437Z,25.75
2023-02-25T10:59:04.785Z,25.30
2023-02-25T11:00:38.660Z,30.88
2023-02-25T11:02:23.615Z,30.33
2023-02-25T11:04:00.237Z,30.48
2023-02-25T11:05:40.547Z,30.88
2023-02-25T11:07:34.238Z,28.42
2023-02-25T11:09:38.212Z,33.50
2023-02-25T11:11:21.775Z,33.85
2023-02-25T11:12:57.682Z,35.28
2023-02-25T11:14:32.564Z,34.35
2023-02-25T11:16:09.021Z,37.00
2023-02-25T11:17:45.299Z,36.28
2023-02-25T11:19:25.647Z,37.88
2023-02-25T11:21:01.987Z,37.33
2023-02-25T11:22:40.232Z,37.33
2023-02-25T11:24:17.386Z,32.08
2023-02-25T11:25:53.821Z,25.10
2023-02-25T11:27:37.848Z,28.17
2023-02-25T11:29:19.128Z,31.70
2023-02-25T11:30:52.947Z,31.30
2023-02-25T11:32:26.442Z,30.60
2023-02-25T11:34:03.500Z,26.83
2023-02-25T11:35:38.530Z,29.73
2023-02-25T11:37:36.984Z,34.13
2023-02-25T11:39:20.071Z,33.15
2023-02-25T11:40:54.198Z,33.00
2023-02-25T11:42:30.253Z,34.35
2023-02-25T11:44:23.789Z,32.08
2023-02-25T11:46:00.978Z,34.38
2023-02-25T11:47:37.095Z,30.88
2023-02-25T11:49:19.324Z,30.23
2023-02-25T11:51:01.430Z,30.30
2023-02-25T11:52:41.768Z,56.65
2023-02-25T11:54:26.011Z,38.53
2023-02-25T11:56:08.331Z,33.13
2023-02-25T11:57:55.401Z,29.73
2023-02-25T11:59:35.452Z,26.20
2023-02-25T12:01:21.536Z,31.65
2023-02-25T12:03:24.783Z,33.88
2023-02-25T12:05:25.204Z,33.10
2023-02-25T12:07:31.134Z,29.80
2023-02-25T12:09:35.432Z,27.80
2023-02-25T12:11:52.421Z,30.77
2023-02-25T12:13:58.036Z,28.23
2023-02-25T12:16:23.618Z,28.70
2023-02-25T12:18:28.145Z,30.15
2023-02-25T12:20:33.491Z,30.95
2023-02-25T12:22:40.808Z,30.40
2023-02-25T12:24:40.070Z,28.13
2023-02-25T12:26:19.936Z,30.13
2023-02-25T12:28:15.320Z,28.95
2023-02-25T12:30:28.864Z,35.80
2023-02-25T12:32:23.232Z,30.65
2023-02-25T12:34:14.487Z,40.15
2023-02-25T12:36:06.974Z,73.88
2023-02-25T12:38:05.458Z,43.40
2023-02-25T12:40:04.586Z,33.83
2023-02-25T12:41:45.860Z,34.05
2023-02-25T12:43:33.010Z,28.55
2023-02-25T12:45:37.869Z,21.08
2023-02-25T12:47:30.931Z,25.30
2023-02-25T12:49:33.797Z,23.02
2023-02-25T12:51:29.591Z,13.18
2023-02-25T12:53:16.757Z,10.98
2023-02-25T12:55:20.461Z,11.40
2023-02-25T12:57:18.799Z,29.60
2023-02-25T12:59:18.532Z,25.88
2023-02-25T13:01:06.275Z,27.55
2023-02-25T13:03:01.353Z,27.55
2023-02-25T13:05:08.128Z,23.38
2023-02-25T13:07:01.528Z,30.27
2023-02-25T13:09:02.144Z,27.15
2023-02-25T13:10:59.272Z,36.83
2023-02-25T13:12:58.021Z,36.40
2023-02-25T13:14:58.677Z,41.55
2023-02-25T13:16:44.002Z,47.20
2023-02-25T13:18:25.278Z,43.22
2023-02-25T13:20:48.338Z,43.92
2023-02-25T13:22:38.364Z,40.40
2023-02-25T13:24:27.732Z,46.03
2023-02-25T13:26:15.771Z,31.30
2023-02-25T13:28:06.610Z,41.22
2023-02-25T13:29:59.833Z,35.50
2023-02-25T13:31:45.496Z,38.33
2023-02-25T13:33:51.538Z,36.28
2023-02-25T13:35:40.710Z,36.72
2023-02-25T13:37:38.043Z,35.92
2023-02-25T13:39:36.747Z,37.25
2023-02-25T13:41:32.981Z,36.35
2023-02-25T13:43:33.196Z,35.92
2023-02-25T13:45:58.183Z,37.08
2023-02-25T13:47:55.269Z,39.10
2023-02-25T13:49:49.463Z,36.20
2023-02-25T13:51:49.775Z,36.40
2023-02-25T13:53:46.551Z,42.92
2023-02-25T13:55:42.822Z,40.50
2023-02-25T13:57:31.905Z,41.72
2023-02-25T13:59:28.055Z,53.63
2023-02-25T14:01:17.171Z,54.42
2023-02-25T14:03:16.732Z,63.08
2023-02-25T14:05:23.372Z,59.45
2023-02-25T14:07:14.463Z,67.45
2023-02-25T14:09:28.888Z,61.42
2023-02-25T14:11:17.450Z,54.10
2023-02-25T14:13:08.020Z,51.40
2023-02-25T14:15:21.648Z,48.75
2023-02-25T14:17:13.525Z,58.90
2023-02-25T14:18:59.256Z,60.13
2023-02-25T14:20:47.509Z,69.10
2023-02-25T14:22:38.510Z,61.10
2023-02-25T14:24:20.620Z,60.95
2023-02-25T14:26:15.029Z,66.43
2023-02-25T14:28:00.690Z,57.88
2023-02-25T14:29:44.135Z,60.15
2023-02-25T14:31:26.150Z,58.33
2023-02-25T14:33:22.506Z,25.73
2023-02-25T14:35:16.601Z,26.98
2023-02-25T14:37:01.769Z,26.90
2023-02-25T14:38:51.231Z,23.80
2023-02-25T14:40:34.118Z,23.70
2023-02-25T14:42:27.004Z,24.00
2023-02-25T14:44:06.355Z,21.77
2023-02-25T14:45:45.716Z,16.60
2023-02-25T14:47:27.468Z,18.15
2023-02-25T14:49:05.239Z,20.52
2023-02-25T14:50:45.788Z,18.45
2023-02-25T14:52:49.295Z,17.75
2023-02-25T14:54:46.016Z,21.75
2023-02-25T14:56:49.359Z,19.27
2023-02-25T14:58:55.433Z,13.85
2023-02-25T15:00:48.505Z,16.65
2023-02-25T15:02:31.431Z,13.65
2023-02-25T15:04:26.112Z,14.15
2023-02-25T15:06:24.384Z,16.30
2023-02-25T15:08:19.949Z,17.85
2023-02-25T15:10:26.325Z,22.17
2023-02-25T15:12:23.126Z,12.98
2023-02-25T15:14:23.967Z,14.20
2023-02-25T15:16:28.448Z,14.38
2023-02-25T15:18:29.164Z,11.70
2023-02-25T15:20:39.298Z,11.90
2023-02-25T15:22:23.974Z,11.27
2023-02-25T15:23:57.874Z,11.20
2023-02-25T15:25:47.920Z,10.75
2023-02-25T15:27:44.509Z,10.52
2023-02-25T15:29:42.875Z,16.65
2023-02-25T15:31:39.181Z,20.27
2023-02-25T15:33:25.083Z,21.25
2023-02-25T15:35:00.905Z,36.88
2023-02-25T15:36:43.564Z,32.40
2023-02-25T15:38:22.750Z,19.75
2023-02-25T15:39:57.816Z,48.47
2023-02-25T15:42:00.850Z,82.57
2023-02-25T15:43:43.240Z,58.60
2023-02-25T15:45:46.720Z,62.45
2023-02-25T15:47:26.398Z,53.03
2023-02-25T15:49:19.972Z,53.33
2023-02-25T15:50:56.967Z,57.95
2023-02-25T15:53:07.060Z,56.08
2023-02-25T15:54:49.755Z,55.72
2023-02-25T15:56:45.446Z,57.70
2023-02-25T15:58:43.243Z,53.80
2023-02-25T16:00:53.509Z,92.90
2023-02-25T16:02:42.477Z,64.80
2023-02-25T16:04:44.008Z,85.25
2023-02-25T16:06:21.515Z,76.90
2023-02-25T16:08:07.313Z,84.25
2023-02-25T16:09:43.323Z,113.18
2023-02-25T16:11:34.640Z,99.68
2023-02-25T16:13:15.894Z,111.05
2023-02-25T16:14:52.017Z,117.90
2023-02-25T16:16:26.535Z,132.57
2023-02-25T16:18:14.459Z,103.45
2023-02-25T16:19:52.599Z,86.40
2023-02-25T16:21:39.261Z,81.72
2023-02-25T16:23:12.773Z,87.45
2023-02-25T16:24:50.254Z,85.93
2023-02-25T16:26:35.452Z,83.07
2023-02-25T16:28:19.649Z,83.18
2023-02-25T16:30:04.617Z,99.43
2023-02-25T16:31:47.618Z,39.10
2023-02-25T16:33:30.639Z,14.07
2023-02-25T16:35:11.569Z,7.82
2023-02-25T16:36:55.044Z,6.82
2023-02-25T16:38:38.152Z,8.15
2023-02-25T16:40:18.072Z,8.48
2023-02-25T16:41:53.069Z,6.80
2023-02-25T16:43:33.558Z,9.32
2023-02-25T16:45:09.929Z,10.55
2023-02-25T16:46:49.481Z,11.68
2023-02-25T16:48:28.333Z,10.48
2023-02-25T16:50:04.550Z,14.13
2023-02-25T16:51:40.379Z,12.32
2023-02-25T16:53:20.494Z,12.98
2023-02-25T16:54:58.464Z,13.63
2023-02-25T16:56:33.761Z,18.85
2023-02-25T16:58:20.978Z,15.88
2023-02-25T17:00:15.151Z,15.10
2023-02-25T17:01:55.153Z,19.00
2023-02-25T17:03:33.212Z,21.48
2023-02-25T17:05:22.726Z,31.77
2023-02-25T17:07:18.280Z,27.50
2023-02-25T17:08:52.509Z,33.58
2023-02-25T17:10:28.764Z,33.35
2023-02-25T17:12:03.928Z,28.85
2023-02-25T17:13:41.690Z,26.92
2023-02-25T17:15:19.420Z,28.90
2023-02-25T17:16:54.192Z,49.45
2023-02-25T17:18:32.921Z,39.65
2023-02-25T17:20:09.852Z,34.45
2023-02-25T17:21:48.292Z,35.42
2023-02-25T20:55:26.414Z,23.90
2023-02-25T20:57:02.420Z,26.40
2023-02-25T20:58:35.682Z,18.27
2023-02-25T21:00:10.174Z,17.63
2023-02-25T21:01:43.926Z,17.42
2023-02-25T21:03:17.397Z,15.23
2023-02-25T21:04:51.644Z,16.40
2023-02-25T21:06:26.904Z,14.60
2023-02-25T21:08:00.334Z,15.45
2023-02-25T21:09:34.154Z,17.17
2023-02-25T21:11:07.728Z,15.75
2023-02-25T21:12:42.388Z,34.58
2023-02-25T21:14:15.740Z,25.15
2023-02-25T21:15:49.165Z,15.90
2023-02-25T21:17:22.496Z,15.25
2023-02-25T21:18:58.195Z,16.90
2023-02-25T21:20:31.472Z,18.77
2023-02-25T21:22:04.860Z,18.00
2023-02-25T21:23:39.811Z,19.42
2023-02-25T21:25:12.990Z,17.40
2023-02-25T21:26:47.080Z,19.45
2023-02-25T21:28:22.146Z,24.55
2023-02-25T21:29:55.352Z,28.65
2023-02-25T21:31:28.607Z,24.42
2023-02-25T21:33:01.858Z,26.25
2023-02-25T21:34:35.340Z,40.15
2023-02-25T21:36:10.228Z,40.17
2023-02-25T21:37:43.499Z,37.65
2023-02-25T21:39:16.689Z,37.15
2023-02-25T21:40:50.252Z,35.85
2023-02-25T21:42:23.613Z,36.97
2023-02-25T21:43:58.197Z,33.53
2023-02-25T21:45:31.473Z,35.95
2023-02-25T21:47:05.090Z,34.42
2023-02-25T21:48:37.378Z,35.63
2023-02-25T21:50:11.815Z,32.67
2023-02-25T21:51:45.019Z,34.65
2023-02-25T21:53:18.436Z,36.42
2023-02-25T21:54:52.797Z,35.50
2023-02-25T21:56:26.922Z,42.22
2023-02-25T21:58:00.758Z,43.60
2023-02-25T21:59:35.387Z,50.72
2023-02-25T22:01:16.236Z,53.67
2023-02-25T22:02:49.363Z,53.83
2023-02-25T22:04:22.730Z,51.75
2023-02-25T22:05:55.995Z,48.00
2023-02-25T22:07:29.181Z,43.75
2023-02-25T22:09:02.691Z,43.80
2023-02-25T22:10:36.574Z,40.80
2023-02-25T22:12:09.950Z,45.15
2023-02-25T22:13:44.236Z,49.15
2023-02-25T22:15:18.951Z,46.70
2023-02-25T22:16:52.193Z,42.67
2023-02-25T22:18:25.684Z,32.47
2023-02-25T22:19:58.961Z,25.67
2023-02-25T22:21:34.287Z,24.05
2023-02-25T22:23:07.722Z,19.13
2023-02-25T22:24:41.023Z,15.05
2023-02-25T22:26:16.049Z,16.05
2023-02-25T22:27:51.040Z,17.52
2023-02-25T22:29:24.501Z,42.70
2023-02-25T22:30:59.623Z,33.92
2023-02-25T22:32:36.518Z,36.20
2023-02-25T22:34:09.737Z,36.70
2023-02-25T22:35:42.202Z,21.45
2023-02-25T22:37:15.580Z,19.08
2023-02-25T22:38:50.154Z,12.88
2023-02-25T22:40:23.557Z,14.55
2023-02-25T22:41:57.232Z,22.20
2023-02-25T22:43:31.043Z,16.90
2023-02-25T22:45:04.482Z,23.48
2023-02-25T22:46:41.209Z,20.38
2023-02-25T22:48:14.127Z,21.33
2023-02-25T22:49:47.408Z,21.08
2023-02-25T22:51:22.791Z,16.67
2023-02-25T22:52:55.158Z,17.70
2023-02-25T22:54:28.923Z,14.77
2023-02-25T22:56:02.945Z,27.10
2023-02-25T22:57:36.290Z,39.03
2023-02-25T22:59:10.214Z,44.53
2023-02-25T23:00:44.705Z,38.90
2023-02-25T23:02:19.290Z,40.65
2023-02-25T23:03:53.782Z,40.67
2023-02-25T23:05:26.984Z,41.75
2023-02-25T23:07:01.159Z,43.50
2023-02-25T23:08:35.221Z,44.67
2023-02-25T23:10:09.811Z,52.78
2023-02-25T23:11:44.902Z,49.17
2023-02-25T23:13:18.362Z,67.55
2023-02-25T23:14:51.708Z,64.07
2023-02-25T23:16:28.804Z,66.07
2023-02-25T23:18:04.137Z,49.40
2023-02-25T23:19:37.680Z,56.03
2023-02-25T23:21:19.299Z,55.30
2023-02-25T23:22:54.007Z,59.03
2023-02-25T23:24:27.386Z,59.65
2023-02-25T23:26:00.813Z,64.55
2023-02-25T23:27:35.288Z,70.22
2023-02-25T23:29:11.219Z,68.15
2023-02-25T23:30:44.459Z,63.95
2023-02-25T23:32:16.851Z,62.30
2023-02-25T23:33:51.479Z,66.30
2023-02-25T23:35:24.936Z,58.78
2023-02-25T23:36:58.542Z,57.17
2023-02-25T23:38:30.824Z,57.67
2023-02-25T23:40:04.056Z,56.67
2023-02-25T23:41:39.266Z,59.20
2023-02-25T23:43:12.480Z,60.35
2023-02-25T23:44:45.851Z,55.75
2023-02-25T23:46:18.964Z,59.45
2023-02-25T23:47:52.172Z,57.08
2023-02-25T23:49:26.962Z,62.00
2023-02-25T23:51:05.324Z,57.90
2023-02-25T23:52:37.646Z,57.42
2023-02-25T23:54:15.596Z,54.83
2023-02-25T23:55:48.856Z,53.90
2023-02-25T23:57:21.479Z,54.67
2023-02-25T23:58:55.635Z,54.88
